Time;durP1;ratioP1;P1;durP2;ratioP2;P2;SDS_P1;SDS_P2;PMS_P1;PMS_P2;Temp;Humidity;BMP_temperature;BMP_pressure;BME280_temperature;BME280_humidity;BME280_pressure;Samples;Min_cycle;Max_cycle;Signal;HPM_P1;HPM_P2
2023/02/22 00:00:22;;;;;;;;;;;17.60;52.10;;;;;;10081909;28;804;-84
2023/02/22 00:05:18;;;;;;;;;;;17.60;52.10;;;;;;10082499;28;890;-86
2023/02/22 00:10:14;;;;;;;;;;;17.60;52.00;;;;;;10080857;28;891;-79
2023/02/22 00:15:12;;;;;;;;;;;17.60;52.10;;;;;;10081317;28;1964;-72
2023/02/22 00:20:07;;;;;;;;;;;17.60;52.20;;;;;;10081901;28;794;-77
2023/02/22 00:25:02;;;;;;;;;;;17.60;52.20;;;;;;10081212;28;1014;-81
2023/02/22 00:29:58;;;;;;;;;;;17.60;52.10;;;;;;10081081;28;940;-81
2023/02/22 00:34:54;;;;;;;;;;;17.60;52.00;;;;;;10081357;28;1966;-82
2023/02/22 00:39:49;;;;;;;;;;;17.60;52.00;;;;;;10080546;28;806;-81
2023/02/22 00:44:44;;;;;;;;;;;17.50;52.00;;;;;;10081553;28;1401;-82
2023/02/22 00:49:40;;;;;;;;;;;17.50;52.00;;;;;;10080490;28;781;-82
2023/02/22 00:54:35;;;;;;;;;;;17.60;52.10;;;;;;10080477;28;1979;-82
2023/02/22 00:59:30;;;;;;;;;;;17.60;52.00;;;;;;10080812;28;841;-82
2023/02/22 01:04:26;;;;;;;;;;;17.60;52.00;;;;;;10080096;28;884;-82
2023/02/22 01:09:21;;;;;;;;;;;17.50;51.90;;;;;;10095277;28;824;-82
2023/02/22 01:14:17;;;;;;;;;;;17.60;52.00;;;;;;10079234;28;1915;-82
2023/02/22 01:19:12;;;;;;;;;;;17.50;51.90;;;;;;10079839;28;887;-82
2023/02/22 01:24:07;;;;;;;;;;;17.60;52.00;;;;;;10079198;28;861;-82
2023/02/22 01:29:03;;;;;;;;;;;17.60;52.00;;;;;;10079392;28;991;-82
2023/02/22 01:33:58;;;;;;;;;;;17.60;52.00;;;;;;10079830;28;1969;-82
2023/02/22 01:38:53;;;;;;;;;;;17.60;52.00;;;;;;10078488;28;889;-82
2023/02/22 01:43:49;;;;;;;;;;;17.50;51.90;;;;;;10078855;28;1309;-82
2023/02/22 01:48:44;;;;;;;;;;;17.60;51.90;;;;;;10079671;28;861;-82
2023/02/22 01:53:39;;;;;;;;;;;17.60;51.90;;;;;;10078225;28;1919;-82
2023/02/22 01:58:35;;;;;;;;;;;17.50;51.90;;;;;;10078765;28;763;-82
2023/02/22 02:03:32;;;;;;;;;;;17.50;51.90;;;;;;10078650;28;783;-82
2023/02/22 02:08:27;;;;;;;;;;;17.50;51.90;;;;;;10078431;28;783;-82
2023/02/22 02:13:22;;;;;;;;;;;17.50;51.90;;;;;;10078406;28;1911;-82
2023/02/22 02:18:18;;;;;;;;;;;17.60;51.90;;;;;;10078970;28;932;-82
2023/02/22 02:23:13;;;;;;;;;;;17.60;51.90;;;;;;10078770;28;900;-82
2023/02/22 02:28:09;;;;;;;;;;;17.50;51.90;;;;;;10093485;28;1760;-82
2023/02/22 02:33:04;;;;;;;;;;;17.50;51.90;;;;;;10079194;28;1907;-82
2023/02/22 02:37:59;;;;;;;;;;;17.50;51.80;;;;;;10085178;28;925;-82
2023/02/22 02:42:55;;;;;;;;;;;17.60;51.90;;;;;;10084421;28;1304;-82
2023/02/22 02:47:50;;;;;;;;;;;17.50;51.70;;;;;;10084192;28;810;-82
2023/02/22 02:52:45;;;;;;;;;;;17.50;51.70;;;;;;10084062;28;888;-82
2023/02/22 02:57:41;;;;;;;;;;;17.50;51.80;;;;;;10083817;28;1965;-82
2023/02/22 03:02:36;;;;;;;;;;;17.50;51.80;;;;;;10083764;28;944;-82
2023/02/22 03:07:31;;;;;;;;;;;17.50;51.70;;;;;;10083819;28;928;-82
2023/02/22 03:12:27;;;;;;;;;;;17.50;51.70;;;;;;10083185;28;865;-82
2023/02/22 03:17:22;;;;;;;;;;;17.50;51.60;;;;;;10083342;28;1957;-82
2023/02/22 03:22:18;;;;;;;;;;;17.50;51.70;;;;;;10084223;28;767;-82
2023/02/22 03:27:13;;;;;;;;;;;17.50;51.70;;;;;;10082992;28;1294;-83
2023/02/22 03:32:08;;;;;;;;;;;17.50;51.70;;;;;;10083615;28;927;-82
2023/02/22 03:37:05;;;;;;;;;;;17.50;51.60;;;;;;10082948;28;1966;-82
2023/02/22 03:42:00;;;;;;;;;;;17.50;51.60;;;;;;10083219;28;1107;-82
2023/02/22 03:46:56;;;;;;;;;;;17.50;51.60;;;;;;10081592;28;775;-82
2023/02/22 03:51:51;;;;;;;;;;;17.50;51.60;;;;;;10082311;28;956;-82
2023/02/22 03:56:48;;;;;;;;;;;17.50;51.60;;;;;;10081454;28;2292;-82
2023/02/22 04:01:44;;;;;;;;;;;17.50;51.60;;;;;;10082539;28;829;-82
2023/02/22 04:06:39;;;;;;;;;;;17.50;51.60;;;;;;10081730;28;814;-82
2023/02/22 04:11:34;;;;;;;;;;;17.50;51.60;;;;;;10082169;28;845;-82
2023/02/22 04:16:30;;;;;;;;;;;17.50;51.60;;;;;;10080859;28;1906;-82
2023/02/22 04:21:25;;;;;;;;;;;17.50;51.50;;;;;;10080817;28;917;-82
2023/02/22 04:26:21;;;;;;;;;;;17.50;51.50;;;;;;10080632;28;897;-82
2023/02/22 04:31:16;;;;;;;;;;;17.50;52.10;;;;;;10081241;28;893;-82
2023/02/22 04:36:14;;;;;;;;;;;17.50;51.60;;;;;;10080880;28;1902;-82
2023/02/22 04:41:10;;;;;;;;;;;17.50;51.50;;;;;;10080434;28;1271;-82
2023/02/22 04:46:05;;;;;;;;;;;17.50;51.50;;;;;;10080657;28;802;-81
2023/02/22 04:51:01;;;;;;;;;;;17.50;51.60;;;;;;10080380;28;1243;-82
2023/02/22 04:55:56;;;;;;;;;;;17.50;51.50;;;;;;10080218;28;1911;-82
2023/02/22 05:00:51;;;;;;;;;;;17.50;51.50;;;;;;10080203;28;1083;-80
2023/02/22 05:05:47;;;;;;;;;;;17.50;51.40;;;;;;10079518;28;958;-81
2023/02/22 05:10:42;;;;;;;;;;;17.50;51.40;;;;;;10079220;28;1000;-82
2023/02/22 05:15:37;;;;;;;;;;;17.50;51.30;;;;;;10080686;28;1969;-82
2023/02/22 05:20:33;;;;;;;;;;;17.50;51.30;;;;;;10080277;28;850;-82
2023/02/22 05:25:28;;;;;;;;;;;17.50;51.20;;;;;;10079610;28;783;-82
2023/02/22 05:30:24;;;;;;;;;;;17.60;51.30;;;;;;10079604;28;778;-82
2023/02/22 05:35:19;;;;;;;;;;;17.60;51.30;;;;;;10079232;28;1903;-82
2023/02/22 05:40:14;;;;;;;;;;;17.60;51.20;;;;;;10078454;28;889;-82
2023/02/22 05:45:10;;;;;;;;;;;17.60;51.20;;;;;;10079817;28;1255;-82
2023/02/22 05:50:05;;;;;;;;;;;17.60;51.10;;;;;;10079589;28;826;-82
2023/02/22 05:55:00;;;;;;;;;;;17.60;51.20;;;;;;10079309;28;1911;-82
2023/02/22 05:59:56;;;;;;;;;;;17.60;51.00;;;;;;10078173;28;846;-82
2023/02/22 06:04:51;;;;;;;;;;;17.60;51.10;;;;;;10079225;28;885;-82
2023/02/22 06:09:46;;;;;;;;;;;17.60;51.10;;;;;;10082322;28;900;-83
2023/02/22 06:14:44;;;;;;;;;;;17.60;51.00;;;;;;10085005;28;1894;-81
2023/02/22 06:19:40;;;;;;;;;;;17.60;51.00;;;;;;10085157;28;894;-79
2023/02/22 06:24:35;;;;;;;;;;;17.70;51.00;;;;;;10085182;28;890;-79
2023/02/22 06:29:31;;;;;;;;;;;17.60;51.00;;;;;;10085363;28;881;-84
2023/02/22 06:34:27;;;;;;;;;;;17.70;51.00;;;;;;10084542;28;1887;-81
2023/02/22 06:39:22;;;;;;;;;;;17.70;51.00;;;;;;10083830;28;817;-81
2023/02/22 06:44:18;;;;;;;;;;;17.70;51.00;;;;;;10085147;28;1145;-83
2023/02/22 06:49:13;;;;;;;;;;;17.60;50.90;;;;;;10084215;28;930;-83
2023/02/22 06:54:08;;;;;;;;;;;17.70;51.00;;;;;;10084631;28;1974;-81
2023/02/22 06:59:04;;;;;;;;;;;17.70;51.00;;;;;;10084572;28;845;-80
2023/02/22 07:03:59;;;;;;;;;;;17.70;51.00;;;;;;10084363;28;932;-80
2023/02/22 07:08:55;;;;;;;;;;;17.70;51.00;;;;;;10082941;28;1164;-80
2023/02/22 07:13:50;;;;;;;;;;;17.60;51.00;;;;;;10082720;28;1898;-80
2023/02/22 07:18:45;;;;;;;;;;;17.60;51.10;;;;;;10082749;28;902;-78
2023/02/22 07:23:41;;;;;;;;;;;17.60;51.10;;;;;;10082857;28;973;-78
2023/02/22 07:28:36;;;;;;;;;;;17.50;51.00;;;;;;10083667;28;848;-78
2023/02/22 07:33:31;;;;;;;;;;;17.60;51.10;;;;;;10083369;28;1899;-81
2023/02/22 07:38:27;;;;;;;;;;;17.60;51.10;;;;;;10083225;28;787;-81
2023/02/22 07:43:23;;;;;;;;;;;17.60;51.00;;;;;;10082570;28;1290;-80
2023/02/22 07:48:18;;;;;;;;;;;17.60;51.00;;;;;;10082444;28;811;-77
2023/02/22 07:53:13;;;;;;;;;;;17.60;51.00;;;;;;10082788;28;1950;-83
2023/02/22 07:58:09;;;;;;;;;;;17.60;50.90;;;;;;10082665;28;814;-81
2023/02/22 08:03:04;;;;;;;;;;;17.60;50.90;;;;;;10081960;28;956;-82
2023/02/22 08:07:59;;;;;;;;;;;17.60;51.00;;;;;;10081162;28;896;-82
2023/02/22 08:12:55;;;;;;;;;;;17.60;50.90;;;;;;10081490;28;976;-85
2023/02/22 08:17:50;;;;;;;;;;;17.60;50.90;;;;;;10080860;28;1967;-85
2023/02/22 08:22:45;;;;;;;;;;;17.60;51.00;;;;;;10081885;28;850;-84
2023/02/22 08:27:41;;;;;;;;;;;17.50;51.00;;;;;;10080698;28;1020;-83
2023/02/22 08:32:36;;;;;;;;;;;17.50;51.10;;;;;;10080698;28;891;-77
2023/02/22 08:37:32;;;;;;;;;;;17.50;51.10;;;;;;10080833;28;1906;-76
2023/02/22 08:42:27;;;;;;;;;;;17.70;51.80;;;;;;10078635;28;1210;-76
2023/02/22 08:47:22;;;;;;;;;;;17.80;52.50;;;;;;10080281;28;890;-76
2023/02/22 08:52:18;;;;;;;;;;;17.80;52.80;;;;;;10079882;28;865;-76
2023/02/22 08:57:13;;;;;;;;;;;17.80;53.00;;;;;;10080309;28;1977;-71
2023/02/22 09:02:08;;;;;;;;;;;17.90;53.00;;;;;;10079916;28;1124;-72
2023/02/22 09:07:04;;;;;;;;;;;17.90;53.20;;;;;;10080208;28;846;-71
2023/02/22 09:11:59;;;;;;;;;;;18.00;53.40;;;;;;10080131;28;928;-71
2023/02/22 09:16:54;;;;;;;;;;;18.00;53.50;;;;;;10079552;28;1968;-72
2023/02/22 09:21:50;;;;;;;;;;;18.00;53.40;;;;;;10080302;28;830;-79
2023/02/22 09:26:46;;;;;;;;;;;17.90;53.40;;;;;;10080182;28;864;-80
2023/02/22 09:31:41;;;;;;;;;;;17.90;53.30;;;;;;10079998;28;850;-80
2023/02/22 09:36:38;;;;;;;;;;;17.90;53.20;;;;;;10078685;28;1965;-80
2023/02/22 09:41:33;;;;;;;;;;;17.90;53.10;;;;;;10079418;28;1243;-81
2023/02/22 09:46:29;;;;;;;;;;;18.00;53.00;;;;;;10085138;28;810;-81
2023/02/22 09:51:26;;;;;;;;;;;18.00;53.00;;;;;;10086108;28;853;-76
2023/02/22 09:56:21;;;;;;;;;;;18.00;53.00;;;;;;10086104;28;1922;-74
2023/02/22 10:01:17;;;;;;;;;;;17.90;52.90;;;;;;10085345;28;778;-74
2023/02/22 10:06:16;;;;;;;;;;;17.90;52.90;;;;;;10085481;28;1016;-78
2023/02/22 10:11:11;;;;;;;;;;;18.00;53.20;;;;;;10084749;28;956;-85
2023/02/22 10:16:06;;;;;;;;;;;18.00;53.10;;;;;;10085938;28;1914;-78
2023/02/22 10:21:02;;;;;;;;;;;17.80;53.20;;;;;;10084412;28;838;-81
2023/02/22 10:25:57;;;;;;;;;;;17.70;53.10;;;;;;10084914;28;955;-85
2023/02/22 10:30:54;;;;;;;;;;;17.70;53.10;;;;;;10084480;28;755;-85
2023/02/22 10:35:50;;;;;;;;;;;17.70;53.70;;;;;;10084907;28;1906;-84
2023/02/22 10:40:45;;;;;;;;;;;17.70;53.10;;;;;;10083734;28;1181;-85
2023/02/22 10:45:40;;;;;;;;;;;17.70;53.00;;;;;;10085038;28;924;-85
2023/02/22 10:50:36;;;;;;;;;;;17.70;52.90;;;;;;10084720;28;829;-85
2023/02/22 10:55:31;;;;;;;;;;;17.70;52.90;;;;;;10083716;28;1899;-82
2023/02/22 11:00:28;;;;;;;;;;;17.70;52.90;;;;;;10084452;28;829;-82
2023/02/22 11:05:24;;;;;;;;;;;17.70;52.90;;;;;;10084214;28;775;-82
2023/02/22 11:10:19;;;;;;;;;;;17.70;53.00;;;;;;10083300;28;822;-82
2023/02/22 11:15:15;;;;;;;;;;;17.70;53.00;;;;;;10083857;28;1953;-81
2023/02/22 11:20:11;;;;;;;;;;;17.70;52.90;;;;;;10083272;28;771;-83
2023/02/22 11:25:06;;;;;;;;;;;17.70;52.90;;;;;;10082456;28;1147;-82
2023/02/22 11:30:01;;;;;;;;;;;17.80;52.90;;;;;;10082510;28;868;-85
2023/02/22 11:34:57;;;;;;;;;;;17.70;52.80;;;;;;10082805;28;1907;-76
2023/02/22 11:39:53;;;;;;;;;;;17.80;53.50;;;;;;10083344;28;795;-84
2023/02/22 11:44:48;;;;;;;;;;;17.80;52.90;;;;;;10083441;28;1109;-84
2023/02/22 11:49:44;;;;;;;;;;;17.80;52.80;;;;;;10083024;28;956;-84
2023/02/22 11:54:40;;;;;;;;;;;17.80;52.80;;;;;;10082083;28;1910;-79
2023/02/22 11:59:35;;;;;;;;;;;17.80;53.10;;;;;;10082070;28;889;-74
2023/02/22 12:04:31;;;;;;;;;;;17.70;52.80;;;;;;10081653;28;1128;-74
2023/02/22 12:09:27;;;;;;;;;;;17.70;52.90;;;;;;10080901;28;854;-74
2023/02/22 12:14:22;;;;;;;;;;;17.60;52.80;;;;;;10081579;28;1967;-74
2023/02/22 12:19:17;;;;;;;;;;;17.60;52.80;;;;;;10082120;28;790;-76
2023/02/22 12:24:15;;;;;;;;;;;17.60;52.80;;;;;;10081429;28;898;-77
2023/02/22 12:29:10;;;;;;;;;;;17.50;52.70;;;;;;10081254;28;875;-80
2023/02/22 12:34:06;;;;;;;;;;;17.50;52.80;;;;;;10080655;28;1961;-78
2023/02/22 12:39:04;;;;;;;;;;;17.50;52.60;;;;;;10080803;28;953;-80
2023/02/22 12:43:59;;;;;;;;;;;17.50;52.70;;;;;;10080863;28;1288;-80
2023/02/22 12:48:55;;;;;;;;;;;17.50;52.60;;;;;;10080571;28;885;-79
2023/02/22 12:53:51;;;;;;;;;;;17.50;52.50;;;;;;10095583;28;1915;-79
2023/02/22 12:58:46;;;;;;;;;;;17.60;52.40;;;;;;10080307;28;802;-79
2023/02/22 13:03:42;;;;;;;;;;;17.60;52.30;;;;;;10079948;28;810;-80
2023/02/22 13:08:38;;;;;;;;;;;17.60;52.30;;;;;;10080089;28;1143;-79
2023/02/22 13:13:34;;;;;;;;;;;17.60;52.30;;;;;;10079902;28;1906;-75
2023/02/22 13:18:29;;;;;;;;;;;17.60;52.30;;;;;;10080597;28;798;-77
2023/02/22 13:23:24;;;;;;;;;;;17.60;52.50;;;;;;10079072;28;819;-78
2023/02/22 13:28:20;;;;;;;;;;;17.80;52.80;;;;;;10080087;28;910;-75
2023/02/22 13:33:15;;;;;;;;;;;17.80;53.20;;;;;;10079532;28;886;-78
2023/02/22 13:38:11;;;;;;;;;;;17.80;53.50;;;;;;10079229;28;1895;-79
2023/02/22 13:43:06;;;;;;;;;;;17.80;53.60;;;;;;10079208;28;1094;-78
2023/02/22 13:48:02;;;;;;;;;;;17.70;53.40;;;;;;10079051;28;868;-79
2023/02/22 13:52:57;;;;;;;;;;;17.70;53.20;;;;;;10079726;28;789;-78
2023/02/22 13:57:53;;;;;;;;;;;17.80;53.10;;;;;;10079400;28;1889;-77
2023/02/22 14:02:48;;;;;;;;;;;17.80;53.00;;;;;;10078553;28;881;-72
2023/02/22 14:07:44;;;;;;;;;;;17.90;52.70;;;;;;10077791;28;945;-77
2023/02/22 14:12:39;;;;;;;;;;;18.00;52.90;;;;;;10078457;28;963;-77
2023/02/22 14:17:35;;;;;;;;;;;18.00;52.90;;;;;;10078343;28;1915;-76
2023/02/22 14:22:30;;;;;;;;;;;18.00;52.90;;;;;;10078918;28;845;-77
2023/02/22 14:27:26;;;;;;;;;;;18.10;52.90;;;;;;10078213;28;814;-77
2023/02/22 14:32:29;;;;;;;;;;;18.00;52.70;;;;;;10084167;28;853;-77
2023/02/22 14:37:24;;;;;;;;;;;18.00;52.80;;;;;;10084578;28;1910;-77
2023/02/22 14:42:19;;;;;;;;;;;18.00;53.00;;;;;;10084720;28;1360;-77
2023/02/22 14:47:15;;;;;;;;;;;17.90;52.90;;;;;;10084950;28;968;-77
2023/02/22 14:52:10;;;;;;;;;;;17.90;53.20;;;;;;10084218;28;776;-80
2023/02/22 14:57:13;;;;;;;;;;;18.00;53.20;;;;;;10084425;28;1910;-78
2023/02/22 15:02:09;;;;;;;;;;;17.90;53.20;;;;;;10083766;28;1118;-78
2023/02/22 15:07:05;;;;;;;;;;;18.00;53.30;;;;;;10084452;28;818;-79
2023/02/22 15:12:00;;;;;;;;;;;18.00;53.30;;;;;;10083346;28;916;-77
2023/02/22 15:16:56;;;;;;;;;;;17.90;53.30;;;;;;10083459;28;1911;-75
2023/02/22 15:21:52;;;;;;;;;;;18.00;53.40;;;;;;10098773;28;1142;-77
2023/02/22 15:26:48;;;;;;;;;;;18.00;53.60;;;;;;10122047;28;897;-75
2023/02/22 15:31:45;;;;;;;;;;;18.00;53.80;;;;;;10121729;28;948;-77
2023/02/22 15:36:40;;;;;;;;;;;17.90;53.80;;;;;;10121973;28;1970;-76
2023/02/22 15:41:36;;;;;;;;;;;18.00;53.90;;;;;;10120965;28;1255;-77
2023/02/22 15:46:31;;;;;;;;;;;17.90;53.80;;;;;;10121739;28;806;-77
2023/02/22 15:51:26;;;;;;;;;;;17.90;53.80;;;;;;10121881;28;853;-77
2023/02/22 15:56:22;;;;;;;;;;;17.90;54.30;;;;;;10122039;28;1969;-77
2023/02/22 16:01:17;;;;;;;;;;;17.90;53.70;;;;;;10120949;28;774;-77
2023/02/22 16:06:13;;;;;;;;;;;17.90;53.60;;;;;;10121782;28;857;-76
2023/02/22 16:11:12;;;;;;;;;;;17.90;53.40;;;;;;10097528;28;854;-76
2023/02/22 16:16:07;;;;;;;;;;;17.80;53.30;;;;;;10081614;28;1970;-76
2023/02/22 16:21:03;;;;;;;;;;;17.90;53.30;;;;;;10081899;28;870;-76
2023/02/22 16:25:58;;;;;;;;;;;17.90;53.20;;;;;;10081146;28;863;-76
2023/02/22 16:30:53;;;;;;;;;;;17.90;53.00;;;;;;10081572;28;888;-77
2023/02/22 16:35:52;;;;;;;;;;;17.90;53.00;;;;;;10080965;28;1952;-77
2023/02/22 16:40:49;;;;;;;;;;;17.90;53.00;;;;;;10081201;28;1224;-75
2023/02/22 16:45:45;;;;;;;;;;;17.90;53.00;;;;;;10080837;28;849;-75
2023/02/22 16:50:40;;;;;;;;;;;17.80;53.30;;;;;;10080491;28;1185;-77
2023/02/22 16:55:35;;;;;;;;;;;17.80;53.50;;;;;;10079922;28;1974;-77
2023/02/22 17:00:31;;;;;;;;;;;17.70;53.10;;;;;;10080229;28;947;-74
2023/02/22 17:05:26;;;;;;;;;;;17.80;53.30;;;;;;10080232;28;782;-75
2023/02/22 17:10:21;;;;;;;;;;;17.80;53.70;;;;;;10080323;28;810;-75
2023/02/22 17:15:17;;;;;;;;;;;17.80;53.80;;;;;;10081075;28;1965;-75
2023/02/22 17:20:12;;;;;;;;;;;17.80;53.70;;;;;;10080695;28;892;-75
2023/02/22 17:25:08;;;;;;;;;;;17.80;53.60;;;;;;10080313;28;798;-75
2023/02/22 17:30:03;;;;;;;;;;;17.90;53.70;;;;;;10078842;28;863;-76
2023/02/22 17:34:59;;;;;;;;;;;17.90;53.80;;;;;;10087580;28;1954;-77
2023/02/22 17:39:54;;;;;;;;;;;17.90;53.80;;;;;;10082461;28;912;-77
2023/02/22 17:44:50;;;;;;;;;;;17.90;53.70;;;;;;10078560;28;1210;-77
2023/02/22 17:49:45;;;;;;;;;;;18.00;53.70;;;;;;10078938;28;815;-75
2023/02/22 17:54:40;;;;;;;;;;;18.00;53.50;;;;;;10078888;28;1911;-75
2023/02/22 17:59:36;;;;;;;;;;;18.00;53.60;;;;;;10078277;28;886;-77
2023/02/22 18:04:31;;;;;;;;;;;18.10;53.60;;;;;;10080820;28;862;-76
2023/02/22 18:09:26;;;;;;;;;;;18.10;53.60;;;;;;10085846;28;979;-76
2023/02/22 18:14:22;;;;;;;;;;;18.10;53.60;;;;;;10085377;28;1902;-77
2023/02/22 18:19:18;;;;;;;;;;;18.10;53.50;;;;;;10084653;28;909;-76
2023/02/22 18:24:13;;;;;;;;;;;18.10;53.40;;;;;;10085067;28;762;-76
2023/02/22 18:29:11;;;;;;;;;;;18.10;53.50;;;;;;10084387;28;858;-76
2023/02/22 18:34:06;;;;;;;;;;;18.10;53.40;;;;;;10084655;28;1907;-75
2023/02/22 18:39:02;;;;;;;;;;;18.20;53.40;;;;;;10084461;28;888;-75
2023/02/22 18:43:59;;;;;;;;;;;18.20;53.30;;;;;;10084415;28;1676;-76
2023/02/22 18:48:54;;;;;;;;;;;18.20;53.30;;;;;;10084270;28;842;-76
2023/02/22 18:53:53;;;;;;;;;;;18.20;53.20;;;;;;10083256;28;1970;-76
2023/02/22 18:58:49;;;;;;;;;;;18.20;53.10;;;;;;10083730;28;791;-76
2023/02/22 19:03:45;;;;;;;;;;;18.20;53.10;;;;;;10082896;28;861;-77
2023/02/22 19:08:41;;;;;;;;;;;18.30;53.10;;;;;;10083265;28;1181;-77
2023/02/22 19:13:36;;;;;;;;;;;18.30;53.00;;;;;;10083252;28;1953;-77
2023/02/22 19:18:32;;;;;;;;;;;18.30;53.30;;;;;;10083025;28;783;-78
2023/02/22 19:23:27;;;;;;;;;;;18.30;53.30;;;;;;10082981;28;870;-79
2023/02/22 19:28:32;;;;;;;;;;;18.30;53.20;;;;;;10083564;28;922;-79
2023/02/22 19:33:27;;;;;;;;;;;18.30;53.20;;;;;;10083216;28;902;-78
2023/02/22 19:38:23;;;;;;;;;;;18.30;53.10;;;;;;10083383;28;1898;-78
2023/02/22 19:43:18;;;;;;;;;;;18.30;53.10;;;;;;10082400;28;1160;-79
2023/02/22 19:48:14;;;;;;;;;;;18.30;53.20;;;;;;10083186;28;826;-79
2023/02/22 19:53:12;;;;;;;;;;;18.30;53.30;;;;;;10083049;28;853;-80
2023/02/22 19:58:08;;;;;;;;;;;18.40;53.70;;;;;;10082180;28;1918;-80
2023/02/22 20:03:08;;;;;;;;;;;18.40;53.70;;;;;;10081606;28;909;-80
2023/02/22 20:08:03;;;;;;;;;;;18.40;53.70;;;;;;10082231;28;802;-76
2023/02/22 20:12:58;;;;;;;;;;;18.30;53.70;;;;;;10100450;28;1095;-81
2023/02/22 20:17:54;;;;;;;;;;;18.40;54.00;;;;;;10120602;28;1964;-82
2023/02/22 20:22:49;;;;;;;;;;;18.30;53.80;;;;;;10120313;28;918;-80
2023/02/22 20:27:45;;;;;;;;;;;18.30;53.60;;;;;;10119986;28;916;-81
2023/02/22 20:32:41;;;;;;;;;;;18.20;53.50;;;;;;10119990;28;898;-81
2023/02/22 20:37:39;;;;;;;;;;;18.30;53.50;;;;;;10120130;28;1910;-81
2023/02/22 20:42:34;;;;;;;;;;;18.20;53.30;;;;;;10119522;28;1302;-80
2023/02/22 20:47:29;;;;;;;;;;;18.30;53.30;;;;;;10120681;28;802;-81
2023/02/22 20:52:25;;;;;;;;;;;18.20;53.20;;;;;;10118830;28;1059;-81
2023/02/22 20:57:20;;;;;;;;;;;18.20;53.20;;;;;;10119680;28;1985;-80
2023/02/22 21:02:16;;;;;;;;;;;18.20;53.20;;;;;;10118535;28;767;-81
2023/02/22 21:07:11;;;;;;;;;;;18.20;53.20;;;;;;10119414;28;879;-81
2023/02/22 21:12:12;;;;;;;;;;;18.20;53.20;;;;;;10119500;28;1331;-81
2023/02/22 21:17:07;;;;;;;;;;;18.20;53.10;;;;;;10119061;28;1898;-81
2023/02/22 21:22:07;;;;;;;;;;;18.20;53.10;;;;;;10118777;28;865;-82
2023/02/22 21:27:02;;;;;;;;;;;18.10;53.00;;;;;;10118948;28;790;-79
2023/02/22 21:31:58;;;;;;;;;;;18.10;53.00;;;;;;10118020;28;1213;-79
2023/02/22 21:36:54;;;;;;;;;;;18.10;52.90;;;;;;10118432;28;1907;-79
2023/02/22 21:41:49;;;;;;;;;;;18.20;52.90;;;;;;10123703;28;1118;-79
2023/02/22 21:46:47;;;;;;;;;;;18.20;52.90;;;;;;10125969;28;948;-79
2023/02/22 21:51:43;;;;;;;;;;;18.20;52.80;;;;;;10125171;28;873;-79
2023/02/22 21:56:39;;;;;;;;;;;18.20;52.80;;;;;;10125371;28;1973;-78
2023/02/22 22:01:34;;;;;;;;;;;18.20;52.80;;;;;;10125392;28;833;-81
2023/02/22 22:06:29;;;;;;;;;;;18.20;52.80;;;;;;10124931;28;731;-73
2023/02/22 22:11:25;;;;;;;;;;;18.10;52.80;;;;;;10124254;28;1040;-76
2023/02/22 22:16:21;;;;;;;;;;;18.20;52.90;;;;;;10124015;28;1971;-76
2023/02/22 22:21:16;;;;;;;;;;;18.10;52.80;;;;;;10124448;28;758;-76
2023/02/22 22:26:11;;;;;;;;;;;18.20;52.90;;;;;;10124410;28;786;-70
2023/02/22 22:31:07;;;;;;;;;;;18.30;52.90;;;;;;10123528;28;838;-75
2023/02/22 22:36:02;;;;;;;;;;;18.30;53.00;;;;;;10123340;28;1899;-83
2023/02/22 22:40:59;;;;;;;;;;;18.20;53.20;;;;;;10123485;28;1534;-76
2023/02/22 22:45:55;;;;;;;;;;;18.20;53.30;;;;;;10124503;28;845;-76
2023/02/22 22:50:51;;;;;;;;;;;18.20;53.20;;;;;;10123183;28;786;-77
2023/02/22 22:55:46;;;;;;;;;;;18.10;53.10;;;;;;10123949;28;1915;-77
2023/02/22 23:00:45;;;;;;;;;;;18.10;53.10;;;;;;10123307;28;817;-76
2023/02/22 23:05:44;;;;;;;;;;;18.10;53.00;;;;;;10123755;28;837;-76
2023/02/22 23:10:39;;;;;;;;;;;18.10;52.90;;;;;;10123592;28;948;-76
2023/02/22 23:15:35;;;;;;;;;;;18.10;52.90;;;;;;10123163;28;1902;-77
2023/02/22 23:20:30;;;;;;;;;;;18.10;52.90;;;;;;10122720;28;765;-75
2023/02/22 23:25:25;;;;;;;;;;;18.10;52.90;;;;;;10123145;28;933;-76
2023/02/22 23:30:21;;;;;;;;;;;18.10;52.90;;;;;;10123038;28;917;-76
2023/02/22 23:35:17;;;;;;;;;;;18.10;52.80;;;;;;10122256;28;1974;-86
2023/02/22 23:40:17;;;;;;;;;;;18.20;52.80;;;;;;10122115;28;1010;-80
2023/02/22 23:45:21;;;;;;;;;;;18.20;52.80;;;;;;10123035;28;1202;-80
2023/02/22 23:50:17;;;;;;;;;;;18.20;52.80;;;;;;10122664;28;818;-80
2023/02/22 23:55:13;;;;;;;;;;;18.10;52.70;;;;;;10121731;28;1915;-79
